sensor_id;sensor_type;location;lat;lon;timestamp;temperature;humidity
68648;SHT31;55632;51.962;16.116;2024-01-15T00:03:34;1.53;92.85
68648;SHT31;55632;51.962;16.116;2024-01-15T00:08:35;1.51;92.90
68648;SHT31;55632;51.962;16.116;2024-01-15T00:13:36;1.53;92.89
68648;SHT31;55632;51.962;16.116;2024-01-15T00:18:36;1.51;92.88
68648;SHT31;55632;51.962;16.116;2024-01-15T00:23:39;1.53;92.88
68648;SHT31;55632;51.962;16.116;2024-01-15T00:28:45;1.56;92.90
68648;SHT31;55632;51.962;16.116;2024-01-15T00:33:46;1.57;92.74
68648;SHT31;55632;51.962;16.116;2024-01-15T00:38:46;1.59;92.77
68648;SHT31;55632;51.962;16.116;2024-01-15T00:43:47;1.60;92.65
68648;SHT31;55632;51.962;16.116;2024-01-15T00:48:51;1.61;92.58
68648;SHT31;55632;51.962;16.116;2024-01-15T00:53:52;1.63;92.44
68648;SHT31;55632;51.962;16.116;2024-01-15T00:58:52;1.63;92.43
68648;SHT31;55632;51.962;16.116;2024-01-15T01:03:53;1.60;92.32
68648;SHT31;55632;51.962;16.116;2024-01-15T01:08:53;1.63;92.26
68648;SHT31;55632;51.962;16.116;2024-01-15T01:13:54;1.64;92.19
68648;SHT31;55632;51.962;16.116;2024-01-15T01:18:56;1.63;92.14
68648;SHT31;55632;51.962;16.116;2024-01-15T01:23:57;1.64;92.04
68648;SHT31;55632;51.962;16.116;2024-01-15T01:28:57;1.64;92.10
68648;SHT31;55632;51.962;16.116;2024-01-15T01:33:59;1.61;92.02
68648;SHT31;55632;51.962;16.116;2024-01-15T01:39:00;1.60;92.09
68648;SHT31;55632;51.962;16.116;2024-01-15T01:44:00;1.60;91.97
68648;SHT31;55632;51.962;16.116;2024-01-15T01:49:01;1.61;91.84
68648;SHT31;55632;51.962;16.116;2024-01-15T01:54:05;1.61;91.67
68648;SHT31;55632;51.962;16.116;2024-01-15T01:59:07;1.60;91.63
68648;SHT31;55632;51.962;16.116;2024-01-15T02:04:10;1.59;91.55
68648;SHT31;55632;51.962;16.116;2024-01-15T02:09:11;1.59;91.56
68648;SHT31;55632;51.962;16.116;2024-01-15T02:14:15;1.60;91.42
68648;SHT31;55632;51.962;16.116;2024-01-15T02:19:16;1.56;91.50
68648;SHT31;55632;51.962;16.116;2024-01-15T02:24:17;1.56;91.44
68648;SHT31;55632;51.962;16.116;2024-01-15T02:29:18;1.57;91.36
68648;SHT31;55632;51.962;16.116;2024-01-15T02:34:18;1.54;91.42
68648;SHT31;55632;51.962;16.116;2024-01-15T02:39:19;1.56;91.40
68648;SHT31;55632;51.962;16.116;2024-01-15T02:44:19;1.54;91.33
68648;SHT31;55632;51.962;16.116;2024-01-15T02:49:20;1.56;91.22
68648;SHT31;55632;51.962;16.116;2024-01-15T02:54:21;1.54;91.11
68648;SHT31;55632;51.962;16.116;2024-01-15T02:59:21;1.51;91.21
68648;SHT31;55632;51.962;16.116;2024-01-15T03:04:22;1.53;91.23
68648;SHT31;55632;51.962;16.116;2024-01-15T03:09:22;1.51;91.25
68648;SHT31;55632;51.962;16.116;2024-01-15T03:14:23;1.49;91.27
68648;SHT31;55632;51.962;16.116;2024-01-15T03:19:26;1.49;91.20
68648;SHT31;55632;51.962;16.116;2024-01-15T03:24:27;1.49;91.17
68648;SHT31;55632;51.962;16.116;2024-01-15T03:29:27;1.49;91.18
68648;SHT31;55632;51.962;16.116;2024-01-15T03:34:28;1.46;91.33
68648;SHT31;55632;51.962;16.116;2024-01-15T03:39:29;1.43;91.47
68648;SHT31;55632;51.962;16.116;2024-01-15T03:44:29;1.42;91.52
68648;SHT31;55632;51.962;16.116;2024-01-15T03:49:30;1.40;91.53
68648;SHT31;55632;51.962;16.116;2024-01-15T03:54:31;1.40;91.67
68648;SHT31;55632;51.962;16.116;2024-01-15T03:59:31;1.39;91.75
68648;SHT31;55632;51.962;16.116;2024-01-15T04:04:32;1.33;91.79
68648;SHT31;55632;51.962;16.116;2024-01-15T04:09:32;1.33;91.95
68648;SHT31;55632;51.962;16.116;2024-01-15T04:14:33;1.35;91.96
68648;SHT31;55632;51.962;16.116;2024-01-15T04:19:34;1.33;91.94
68648;SHT31;55632;51.962;16.116;2024-01-15T04:24:34;1.33;92.08
68648;SHT31;55632;51.962;16.116;2024-01-15T04:29:37;1.32;92.09
68648;SHT31;55632;51.962;16.116;2024-01-15T04:34:38;1.31;92.03
68648;SHT31;55632;51.962;16.116;2024-01-15T04:39:38;1.29;91.91
68648;SHT31;55632;51.962;16.116;2024-01-15T04:44:39;1.29;91.85
68648;SHT31;55632;51.962;16.116;2024-01-15T04:49:39;1.29;91.80
68648;SHT31;55632;51.962;16.116;2024-01-15T04:54:40;1.28;91.67
68648;SHT31;55632;51.962;16.116;2024-01-15T04:59:41;1.28;91.35
68648;SHT31;55632;51.962;16.116;2024-01-15T05:04:41;1.26;91.30
68648;SHT31;55632;51.962;16.116;2024-01-15T05:09:42;1.29;91.22
68648;SHT31;55632;51.962;16.116;2024-01-15T05:14:42;1.31;90.71
68648;SHT31;55632;51.962;16.116;2024-01-15T05:19:43;1.26;90.59
68648;SHT31;55632;51.962;16.116;2024-01-15T05:24:43;1.24;90.55
68648;SHT31;55632;51.962;16.116;2024-01-15T05:29:45;1.24;90.71
68648;SHT31;55632;51.962;16.116;2024-01-15T05:34:45;1.21;90.65
68648;SHT31;55632;51.962;16.116;2024-01-15T05:39:46;1.22;90.68
68648;SHT31;55632;51.962;16.116;2024-01-15T05:44:46;1.28;90.44
68648;SHT31;55632;51.962;16.116;2024-01-15T05:49:47;1.25;90.25
68648;SHT31;55632;51.962;16.116;2024-01-15T05:54:48;1.28;90.16
68648;SHT31;55632;51.962;16.116;2024-01-15T05:59:49;1.31;89.90
68648;SHT31;55632;51.962;16.116;2024-01-15T06:04:50;1.31;89.82
68648;SHT31;55632;51.962;16.116;2024-01-15T06:09:50;1.32;89.60
68648;SHT31;55632;51.962;16.116;2024-01-15T06:14:51;1.33;89.49
68648;SHT31;55632;51.962;16.116;2024-01-15T06:19:52;1.33;89.27
68648;SHT31;55632;51.962;16.116;2024-01-15T06:24:53;1.38;89.18
68648;SHT31;55632;51.962;16.116;2024-01-15T06:29:53;1.38;88.80
68648;SHT31;55632;51.962;16.116;2024-01-15T06:34:56;1.35;88.60
68648;SHT31;55632;51.962;16.116;2024-01-15T06:39:56;1.39;88.32
68648;SHT31;55632;51.962;16.116;2024-01-15T06:44:57;1.42;88.07
68648;SHT31;55632;51.962;16.116;2024-01-15T06:49:57;1.44;87.44
68648;SHT31;55632;51.962;16.116;2024-01-15T06:54:59;1.47;87.22
68648;SHT31;55632;51.962;16.116;2024-01-15T07:00:08;1.46;87.17
68648;SHT31;55632;51.962;16.116;2024-01-15T07:05:09;1.44;87.18
68648;SHT31;55632;51.962;16.116;2024-01-15T07:10:11;1.47;87.15
68648;SHT31;55632;51.962;16.116;2024-01-15T07:15:11;1.49;87.06
68648;SHT31;55632;51.962;16.116;2024-01-15T07:20:12;1.47;86.74
68648;SHT31;55632;51.962;16.116;2024-01-15T07:25:13;1.53;86.64
68648;SHT31;55632;51.962;16.116;2024-01-15T07:30:13;1.51;86.53
68648;SHT31;55632;51.962;16.116;2024-01-15T07:35:14;1.53;86.64
68648;SHT31;55632;51.962;16.116;2024-01-15T07:40:15;1.54;86.51
68648;SHT31;55632;51.962;16.116;2024-01-15T07:45:16;1.57;86.51
68648;SHT31;55632;51.962;16.116;2024-01-15T07:50:17;1.57;86.30
68648;SHT31;55632;51.962;16.116;2024-01-15T07:55:18;1.61;86.07
68648;SHT31;55632;51.962;16.116;2024-01-15T08:00:18;1.64;85.72
68648;SHT31;55632;51.962;16.116;2024-01-15T08:05:19;1.71;85.52
68648;SHT31;55632;51.962;16.116;2024-01-15T08:10:21;1.74;85.38
68648;SHT31;55632;51.962;16.116;2024-01-15T08:15:22;1.74;85.07
68648;SHT31;55632;51.962;16.116;2024-01-15T08:20:22;1.71;85.29
68648;SHT31;55632;51.962;16.116;2024-01-15T08:25:23;1.71;85.22
68648;SHT31;55632;51.962;16.116;2024-01-15T08:30:23;1.73;85.19
68648;SHT31;55632;51.962;16.116;2024-01-15T08:35:28;1.82;85.43
68648;SHT31;55632;51.962;16.116;2024-01-15T08:40:28;1.82;85.23
68648;SHT31;55632;51.962;16.116;2024-01-15T08:45:29;1.84;85.13
68648;SHT31;55632;51.962;16.116;2024-01-15T08:50:30;1.78;85.10
68648;SHT31;55632;51.962;16.116;2024-01-15T08:55:32;1.81;85.32
68648;SHT31;55632;51.962;16.116;2024-01-15T09:00:33;1.87;85.18
68648;SHT31;55632;51.962;16.116;2024-01-15T09:05:34;1.93;84.66
68648;SHT31;55632;51.962;16.116;2024-01-15T09:10:34;1.98;84.75
68648;SHT31;55632;51.962;16.116;2024-01-15T09:15:35;2.05;84.53
68648;SHT31;55632;51.962;16.116;2024-01-15T09:20:35;2.08;84.22
68648;SHT31;55632;51.962;16.116;2024-01-15T09:25:36;2.09;83.97
68648;SHT31;55632;51.962;16.116;2024-01-15T09:30:37;2.16;83.58
68648;SHT31;55632;51.962;16.116;2024-01-15T09:35:37;2.22;83.55
68648;SHT31;55632;51.962;16.116;2024-01-15T09:40:38;2.23;83.27
68648;SHT31;55632;51.962;16.116;2024-01-15T09:45:39;2.19;83.18
68648;SHT31;55632;51.962;16.116;2024-01-15T09:50:40;2.20;83.30
68648;SHT31;55632;51.962;16.116;2024-01-15T09:55:40;2.22;82.78
68648;SHT31;55632;51.962;16.116;2024-01-15T10:00:41;2.28;82.36
68648;SHT31;55632;51.962;16.116;2024-01-15T10:05:44;2.30;82.21
68648;SHT31;55632;51.962;16.116;2024-01-15T10:10:44;2.30;81.86
68648;SHT31;55632;51.962;16.116;2024-01-15T10:15:45;2.36;81.67
68648;SHT31;55632;51.962;16.116;2024-01-15T10:20:47;2.40;81.62
68648;SHT31;55632;51.962;16.116;2024-01-15T10:25:47;2.48;81.27
68648;SHT31;55632;51.962;16.116;2024-01-15T10:30:51;2.64;80.61
68648;SHT31;55632;51.962;16.116;2024-01-15T10:35:56;2.71;80.33
68648;SHT31;55632;51.962;16.116;2024-01-15T10:40:57;2.73;80.16
68648;SHT31;55632;51.962;16.116;2024-01-15T10:45:57;2.73;79.87
68648;SHT31;55632;51.962;16.116;2024-01-15T10:50:58;2.75;79.80
68648;SHT31;55632;51.962;16.116;2024-01-15T10:55:59;2.88;80.09
68648;SHT31;55632;51.962;16.116;2024-01-15T11:00:59;2.99;80.03
68648;SHT31;55632;51.962;16.116;2024-01-15T11:06:02;3.03;79.36
68648;SHT31;55632;51.962;16.116;2024-01-15T11:11:03;3.03;78.46
68648;SHT31;55632;51.962;16.116;2024-01-15T11:16:05;2.95;78.98
68648;SHT31;55632;51.962;16.116;2024-01-15T11:37:21;3.16;77.90
68648;SHT31;55632;51.962;16.116;2024-01-15T11:42:04;3.15;77.72
68648;SHT31;55632;51.962;16.116;2024-01-15T11:47:08;3.13;77.51
68648;SHT31;55632;51.962;16.116;2024-01-15T11:52:10;3.13;77.68
68648;SHT31;55632;51.962;16.116;2024-01-15T11:57:18;3.06;77.81
68648;SHT31;55632;51.962;16.116;2024-01-15T12:02:19;3.05;77.51
68648;SHT31;55632;51.962;16.116;2024-01-15T12:07:20;3.05;77.94
68648;SHT31;55632;51.962;16.116;2024-01-15T12:12:22;3.05;77.94
68648;SHT31;55632;51.962;16.116;2024-01-15T12:17:25;3.03;78.05
68648;SHT31;55632;51.962;16.116;2024-01-15T12:22:26;3.03;78.05
68648;SHT31;55632;51.962;16.116;2024-01-15T12:27:28;2.99;78.25
68648;SHT31;55632;51.962;16.116;2024-01-15T12:32:29;2.96;78.34
68648;SHT31;55632;51.962;16.116;2024-01-15T12:37:30;2.96;78.31
68648;SHT31;55632;51.962;16.116;2024-01-15T12:42:30;2.96;78.43
68648;SHT31;55632;51.962;16.116;2024-01-15T12:47:31;3.03;77.92
68648;SHT31;55632;51.962;16.116;2024-01-15T12:52:32;3.00;78.19
68648;SHT31;55632;51.962;16.116;2024-01-15T12:57:34;3.03;78.13
68648;SHT31;55632;51.962;16.116;2024-01-15T13:02:34;3.06;77.89
68648;SHT31;55632;51.962;16.116;2024-01-15T13:07:35;3.05;77.88
68648;SHT31;55632;51.962;16.116;2024-01-15T13:12:37;3.06;77.68
68648;SHT31;55632;51.962;16.116;2024-01-15T13:17:38;3.05;77.36
68648;SHT31;55632;51.962;16.116;2024-01-15T13:22:39;2.98;77.40
68648;SHT31;55632;51.962;16.116;2024-01-15T13:27:40;3.02;77.69
68648;SHT31;55632;51.962;16.116;2024-01-15T13:32:42;3.03;77.48
68648;SHT31;55632;51.962;16.116;2024-01-15T13:37:43;3.03;77.15
68648;SHT31;55632;51.962;16.116;2024-01-15T13:42:43;2.98;77.34
68648;SHT31;55632;51.962;16.116;2024-01-15T13:47:44;2.98;77.02
68648;SHT31;55632;51.962;16.116;2024-01-15T13:52:45;2.96;77.11
68648;SHT31;55632;51.962;16.116;2024-01-15T13:57:45;2.89;77.51
68648;SHT31;55632;51.962;16.116;2024-01-15T14:02:46;2.85;77.77
68648;SHT31;55632;51.962;16.116;2024-01-15T14:07:47;2.78;78.15
68648;SHT31;55632;51.962;16.116;2024-01-15T14:12:47;2.74;78.54
68648;SHT31;55632;51.962;16.116;2024-01-15T14:17:49;2.67;78.92
68648;SHT31;55632;51.962;16.116;2024-01-15T14:22:50;2.65;79.40
68648;SHT31;55632;51.962;16.116;2024-01-15T14:27:50;2.58;79.64
68648;SHT31;55632;51.962;16.116;2024-01-15T14:32:51;2.53;79.91
68648;SHT31;55632;51.962;16.116;2024-01-15T14:37:52;2.46;80.12
68648;SHT31;55632;51.962;16.116;2024-01-15T14:42:52;2.46;80.34
68648;SHT31;55632;51.962;16.116;2024-01-15T14:47:55;2.43;80.48
68648;SHT31;55632;51.962;16.116;2024-01-15T14:52:57;2.43;80.52
68648;SHT31;55632;51.962;16.116;2024-01-15T14:57:58;2.40;80.59
68648;SHT31;55632;51.962;16.116;2024-01-15T15:02:58;2.44;80.62
68648;SHT31;55632;51.962;16.116;2024-01-15T15:07:59;2.39;80.61
68648;SHT31;55632;51.962;16.116;2024-01-15T15:13:00;2.39;80.72
68648;SHT31;55632;51.962;16.116;2024-01-15T15:18:01;2.32;80.74
68648;SHT31;55632;51.962;16.116;2024-01-15T15:23:02;2.29;80.82
68648;SHT31;55632;51.962;16.116;2024-01-15T15:28:04;2.29;80.97
68648;SHT31;55632;51.962;16.116;2024-01-15T15:33:06;2.23;81.14
68648;SHT31;55632;51.962;16.116;2024-01-15T15:38:14;2.23;81.26
68648;SHT31;55632;51.962;16.116;2024-01-15T15:43:15;2.23;81.61
68648;SHT31;55632;51.962;16.116;2024-01-15T15:48:15;2.19;81.91
68648;SHT31;55632;51.962;16.116;2024-01-15T15:53:16;2.18;82.03
68648;SHT31;55632;51.962;16.116;2024-01-15T15:58:16;2.12;82.20
68648;SHT31;55632;51.962;16.116;2024-01-15T16:03:17;2.15;82.33
68648;SHT31;55632;51.962;16.116;2024-01-15T16:08:20;2.12;82.41
68648;SHT31;55632;51.962;16.116;2024-01-15T16:13:21;2.11;82.40
68648;SHT31;55632;51.962;16.116;2024-01-15T16:18:22;2.09;82.36
68648;SHT31;55632;51.962;16.116;2024-01-15T16:23:23;2.08;82.47
68648;SHT31;55632;51.962;16.116;2024-01-15T16:28:23;2.01;82.78
68648;SHT31;55632;51.962;16.116;2024-01-15T16:33:24;1.98;83.87
68648;SHT31;55632;51.962;16.116;2024-01-15T16:38:25;1.84;84.77
68648;SHT31;55632;51.962;16.116;2024-01-15T16:43:26;1.74;85.39
68648;SHT31;55632;51.962;16.116;2024-01-15T16:48:27;1.64;85.63
68648;SHT31;55632;51.962;16.116;2024-01-15T16:53:28;1.56;86.01
68648;SHT31;55632;51.962;16.116;2024-01-15T16:58:28;1.50;86.31
68648;SHT31;55632;51.962;16.116;2024-01-15T17:03:29;1.46;86.72
68648;SHT31;55632;51.962;16.116;2024-01-15T17:08:29;1.44;86.81
68648;SHT31;55632;51.962;16.116;2024-01-15T17:13:30;1.44;86.89
68648;SHT31;55632;51.962;16.116;2024-01-15T17:18:33;1.44;86.99
68648;SHT31;55632;51.962;16.116;2024-01-15T17:23:33;1.42;86.99
68648;SHT31;55632;51.962;16.116;2024-01-15T17:28:34;1.43;86.86
68648;SHT31;55632;51.962;16.116;2024-01-15T17:33:35;1.42;86.61
68648;SHT31;55632;51.962;16.116;2024-01-15T17:38:35;1.38;86.36
68648;SHT31;55632;51.962;16.116;2024-01-15T17:43:36;1.32;86.41
68648;SHT31;55632;51.962;16.116;2024-01-15T17:48:37;1.33;86.48
68648;SHT31;55632;51.962;16.116;2024-01-15T17:53:38;1.33;86.47
68648;SHT31;55632;51.962;16.116;2024-01-15T17:58:39;1.35;86.47
68648;SHT31;55632;51.962;16.116;2024-01-15T18:03:41;1.35;86.50
68648;SHT31;55632;51.962;16.116;2024-01-15T18:08:41;1.29;86.82
68648;SHT31;55632;51.962;16.116;2024-01-15T18:13:42;1.14;87.04
68648;SHT31;55632;51.962;16.116;2024-01-15T18:18:42;0.97;87.42
68648;SHT31;55632;51.962;16.116;2024-01-15T18:23:45;0.90;87.69
68648;SHT31;55632;51.962;16.116;2024-01-15T18:28:46;0.84;87.97
68648;SHT31;55632;51.962;16.116;2024-01-15T18:33:47;0.79;88.16
68648;SHT31;55632;51.962;16.116;2024-01-15T18:38:47;0.74;88.33
68648;SHT31;55632;51.962;16.116;2024-01-15T18:43:48;0.74;88.37
68648;SHT31;55632;51.962;16.116;2024-01-15T18:48:49;0.73;88.50
68648;SHT31;55632;51.962;16.116;2024-01-15T18:53:49;0.72;88.57
68648;SHT31;55632;51.962;16.116;2024-01-15T18:58:50;0.67;88.61
68648;SHT31;55632;51.962;16.116;2024-01-15T19:03:52;0.60;88.56
68648;SHT31;55632;51.962;16.116;2024-01-15T19:08:52;0.56;88.56
68648;SHT31;55632;51.962;16.116;2024-01-15T19:13:53;0.46;88.59
68648;SHT31;55632;51.962;16.116;2024-01-15T19:18:54;0.44;88.64
68648;SHT31;55632;51.962;16.116;2024-01-15T19:23:55;0.39;88.78
68648;SHT31;55632;51.962;16.116;2024-01-15T19:28:55;0.42;88.80
68648;SHT31;55632;51.962;16.116;2024-01-15T19:33:56;0.46;88.78
68648;SHT31;55632;51.962;16.116;2024-01-15T19:38:57;0.48;88.76
68648;SHT31;55632;51.962;16.116;2024-01-15T19:43:58;0.52;88.68
68648;SHT31;55632;51.962;16.116;2024-01-15T19:48:59;0.53;88.62
68648;SHT31;55632;51.962;16.116;2024-01-15T19:53:59;0.50;88.58
68648;SHT31;55632;51.962;16.116;2024-01-15T19:59:00;0.52;88.54
68648;SHT31;55632;51.962;16.116;2024-01-15T20:04:01;0.50;88.56
68648;SHT31;55632;51.962;16.116;2024-01-15T20:09:04;0.52;88.58
68648;SHT31;55632;51.962;16.116;2024-01-15T20:14:04;0.53;88.47
68648;SHT31;55632;51.962;16.116;2024-01-15T20:19:07;0.53;88.43
68648;SHT31;55632;51.962;16.116;2024-01-15T20:24:08;0.52;88.38
68648;SHT31;55632;51.962;16.116;2024-01-15T20:29:08;0.49;88.32
68648;SHT31;55632;51.962;16.116;2024-01-15T20:34:09;0.49;88.10
68648;SHT31;55632;51.962;16.116;2024-01-15T20:39:10;0.49;87.92
68648;SHT31;55632;51.962;16.116;2024-01-15T20:44:10;0.48;87.60
68648;SHT31;55632;51.962;16.116;2024-01-15T20:49:11;0.41;87.09
68648;SHT31;55632;51.962;16.116;2024-01-15T20:54:11;0.36;86.76
68648;SHT31;55632;51.962;16.116;2024-01-15T20:59:12;0.32;86.33
68648;SHT31;55632;51.962;16.116;2024-01-15T21:04:13;0.26;85.93
68648;SHT31;55632;51.962;16.116;2024-01-15T21:09:14;0.18;85.66
68648;SHT31;55632;51.962;16.116;2024-01-15T21:14:14;0.11;85.51
68648;SHT31;55632;51.962;16.116;2024-01-15T21:19:18;0.02;85.27
68648;SHT31;55632;51.962;16.116;2024-01-15T21:24:19;0.01;85.34
68648;SHT31;55632;51.962;16.116;2024-01-15T21:29:25;-0.06;85.08
68648;SHT31;55632;51.962;16.116;2024-01-15T21:34:26;-0.10;84.94
68648;SHT31;55632;51.962;16.116;2024-01-15T21:39:27;-0.11;84.97
68648;SHT31;55632;51.962;16.116;2024-01-15T21:44:27;-0.13;84.76
68648;SHT31;55632;51.962;16.116;2024-01-15T21:49:28;-0.17;84.72
68648;SHT31;55632;51.962;16.116;2024-01-15T21:54:28;-0.17;84.64
68648;SHT31;55632;51.962;16.116;2024-01-15T21:59:29;-0.20;84.45
68648;SHT31;55632;51.962;16.116;2024-01-15T22:04:29;-0.23;84.42
68648;SHT31;55632;51.962;16.116;2024-01-15T22:09:30;-0.27;84.25
68648;SHT31;55632;51.962;16.116;2024-01-15T22:14:30;-0.30;84.18
68648;SHT31;55632;51.962;16.116;2024-01-15T22:19:31;-0.34;84.14
68648;SHT31;55632;51.962;16.116;2024-01-15T22:24:36;-0.34;83.90
68648;SHT31;55632;51.962;16.116;2024-01-15T22:29:37;-0.33;83.63
68648;SHT31;55632;51.962;16.116;2024-01-15T22:34:37;-0.33;83.14
68648;SHT31;55632;51.962;16.116;2024-01-15T22:39:38;-0.37;82.96
68648;SHT31;55632;51.962;16.116;2024-01-15T22:44:39;-0.41;82.83
68648;SHT31;55632;51.962;16.116;2024-01-15T22:49:39;-0.45;82.63
68648;SHT31;55632;51.962;16.116;2024-01-15T22:54:46;-0.50;82.64
68648;SHT31;55632;51.962;16.116;2024-01-15T22:59:49;-0.55;82.59
68648;SHT31;55632;51.962;16.116;2024-01-15T23:04:50;-0.59;82.51
68648;SHT31;55632;51.962;16.116;2024-01-15T23:09:50;-0.69;82.29
68648;SHT31;55632;51.962;16.116;2024-01-15T23:14:51;-0.73;82.24
68648;SHT31;55632;51.962;16.116;2024-01-15T23:19:51;-0.79;82.14
68648;SHT31;55632;51.962;16.116;2024-01-15T23:24:52;-0.87;81.97
68648;SHT31;55632;51.962;16.116;2024-01-15T23:29:52;-0.92;81.88
68648;SHT31;55632;51.962;16.116;2024-01-15T23:34:54;-0.97;81.95
68648;SHT31;55632;51.962;16.116;2024-01-15T23:39:55;-0.94;82.04
68648;SHT31;55632;51.962;16.116;2024-01-15T23:44:56;-0.90;82.03
68648;SHT31;55632;51.962;16.116;2024-01-15T23:49:56;-0.92;81.76
68648;SHT31;55632;51.962;16.116;2024-01-15T23:54:57;-0.89;81.62
68648;SHT31;55632;51.962;16.116;2024-01-15T23:59:57;-0.93;81.27
